Time;durP1;ratioP1;P1;durP2;ratioP2;P2;SDS_P1;SDS_P2;PMS_P1;PMS_P2;Temp;Humidity;BMP_temperature;BMP_pressure;BME280_temperature;BME280_humidity;BME280_pressure;Samples;Min_cycle;Max_cycle;Signal;HPM_P1;HPM_P2
2021/10/28 00:12:13;;;;;;;8.67;5.83;;;11.40;99.90;;;;;;5052762;28;20199;-50
2021/10/28 00:14:42;;;;;;;9.27;6.07;;;11.50;99.90;;;;;;5046994;28;20293;-49
2021/10/28 00:17:11;;;;;;;7.37;6.10;;;11.30;99.90;;;;;;5052023;28;20280;-49
2021/10/28 00:19:41;;;;;;;10.03;6.73;;;11.30;99.90;;;;;;5048065;28;20363;-49
2021/10/28 00:22:10;;;;;;;9.27;6.07;;;11.30;99.90;;;;;;5048228;28;20214;-49
2021/10/28 00:24:36;;;;;;;8.33;6.20;;;11.30;99.90;;;;;;5044511;28;20195;-49
2021/10/28 00:27:04;;;;;;;8.90;6.70;;;11.30;99.90;;;;;;5057127;28;20203;-49
2021/10/28 00:29:31;;;;;;;8.30;5.93;;;11.30;99.90;;;;;;5044735;28;20570;-50
2021/10/28 00:31:58;;;;;;;7.10;5.47;;;11.30;99.90;;;;;;5048326;28;20211;-49
2021/10/28 00:34:26;;;;;;;9.27;5.97;;;11.30;99.90;;;;;;5048330;28;20212;-50
2021/10/28 00:36:53;;;;;;;10.87;6.67;;;11.20;99.90;;;;;;5048565;28;20658;-50
2021/10/28 00:39:20;;;;;;;7.97;6.30;;;11.10;99.90;;;;;;5039864;28;20193;-50
2021/10/28 00:41:49;;;;;;;10.87;6.03;;;11.10;99.90;;;;;;5048504;28;20337;-49
2021/10/28 00:44:16;;;;;;;8.13;6.50;;;11.10;99.90;;;;;;5048056;28;20582;-50
2021/10/28 00:46:43;;;;;;;8.10;6.10;;;11.10;99.90;;;;;;5052094;28;20556;-50
2021/10/28 00:49:12;;;;;;;9.97;6.30;;;10.90;99.90;;;;;;5059162;28;20238;-49
2021/10/28 00:51:40;;;;;;;8.87;6.03;;;10.90;99.90;;;;;;5047714;28;20217;-50
2021/10/28 00:54:12;;;;;;;8.40;6.03;;;10.90;99.90;;;;;;5046575;28;20242;-49
2021/10/28 00:56:42;;;;;;;9.53;6.00;;;10.90;99.90;;;;;;5049972;28;20199;-50
2021/10/28 00:59:10;;;;;;;8.77;5.93;;;11.00;99.90;;;;;;5047336;28;20202;-49
2021/10/28 01:01:37;;;;;;;11.10;5.90;;;11.10;99.90;;;;;;5047869;28;20629;-49
2021/10/28 01:04:04;;;;;;;8.57;6.43;;;11.10;99.90;;;;;;5050042;28;20670;-50
2021/10/28 01:06:32;;;;;;;10.30;6.33;;;11.20;99.90;;;;;;5050621;28;20234;-49
2021/10/28 01:08:59;;;;;;;7.70;5.90;;;11.10;99.90;;;;;;5052014;28;20290;-49
2021/10/28 01:11:28;;;;;;;10.07;5.97;;;11.10;99.90;;;;;;5058570;28;20237;-49
2021/10/28 01:13:57;;;;;;;10.00;6.20;;;11.00;99.90;;;;;;5051303;28;20210;-48
2021/10/28 01:16:24;;;;;;;7.60;5.43;;;11.10;99.90;;;;;;5054638;28;20199;-50
2021/10/28 01:18:51;;;;;;;8.27;5.27;;;11.00;99.90;;;;;;5049522;28;20207;-49
2021/10/28 01:21:19;;;;;;;7.07;5.63;;;11.00;99.90;;;;;;5051354;28;20223;-50
2021/10/28 01:23:47;;;;;;;8.73;6.30;;;10.90;99.90;;;;;;5051895;28;20238;-49
2021/10/28 01:26:16;;;;;;;8.10;5.70;;;10.90;99.90;;;;;;5052683;28;20233;-50
2021/10/28 01:28:50;;;;;;;8.83;5.50;;;10.90;99.90;;;;;;5037601;28;20229;-49
2021/10/28 01:31:20;;;;;;;14.10;7.57;;;11.10;99.90;;;;;;5051689;28;20199;-49
2021/10/28 01:33:49;;;;;;;8.50;5.40;;;11.10;99.90;;;;;;5051318;28;20207;-50
2021/10/28 01:36:17;;;;;;;8.53;5.93;;;11.20;99.90;;;;;;5048805;28;20278;-49
2021/10/28 01:38:45;;;;;;;6.93;5.83;;;11.00;99.90;;;;;;5042250;28;20293;-49
2021/10/28 01:41:13;;;;;;;8.30;5.30;;;11.00;99.90;;;;;;5052768;28;20265;-49
2021/10/28 01:43:39;;;;;;;6.70;5.43;;;11.00;99.90;;;;;;5051323;28;20923;-50
2021/10/28 01:46:06;;;;;;;9.23;5.80;;;11.00;99.90;;;;;;5033809;28;20196;-50
2021/10/28 01:48:36;;;;;;;7.27;5.47;;;10.80;99.90;;;;;;5053721;28;20206;-49
2021/10/28 01:51:04;;;;;;;6.43;5.23;;;10.90;99.90;;;;;;5050169;28;20206;-50
2021/10/28 01:53:30;;;;;;;7.90;5.30;;;11.00;99.90;;;;;;5051745;28;20623;-50
2021/10/28 01:55:57;;;;;;;8.67;5.63;;;11.00;99.90;;;;;;5042492;28;20218;-49
2021/10/28 01:58:24;;;;;;;10.60;5.77;;;11.10;99.90;;;;;;5036626;28;20226;-50
2021/10/28 02:00:52;;;;;;;10.33;5.63;;;11.10;99.90;;;;;;5058788;28;20307;-50
2021/10/28 02:03:23;;;;;;;7.37;5.47;;;11.00;99.90;;;;;;5055535;28;20230;-50
2021/10/28 02:05:51;;;;;;;17.30;5.80;;;10.80;99.90;;;;;;5049895;28;20665;-50
2021/10/28 02:08:18;;;;;;;8.03;5.80;;;10.80;99.90;;;;;;5050623;28;20322;-50
2021/10/28 02:10:45;;;;;;;7.73;5.33;;;10.90;99.90;;;;;;5056489;28;20349;-49
2021/10/28 02:13:13;;;;;;;8.27;4.97;;;11.00;99.90;;;;;;5052601;28;20237;-50
2021/10/28 02:15:41;;;;;;;7.57;5.30;;;11.10;99.90;;;;;;5049742;28;20242;-50
2021/10/28 02:18:08;;;;;;;9.20;5.33;;;11.00;99.90;;;;;;5062434;28;20236;-50
2021/10/28 02:20:35;;;;;;;5.70;4.90;;;11.00;99.90;;;;;;5049880;28;20677;-50
2021/10/28 02:23:03;;;;;;;6.83;4.93;;;10.90;99.90;;;;;;5050855;28;20237;-50
2021/10/28 02:25:30;;;;;;;6.87;5.07;;;10.90;99.90;;;;;;5046016;28;20201;-50
2021/10/28 02:27:57;;;;;;;8.23;5.87;;;10.80;99.90;;;;;;5039510;28;20204;-49
2021/10/28 02:30:25;;;;;;;11.47;5.80;;;10.80;99.90;;;;;;5043590;28;20316;-50
2021/10/28 02:32:52;;;;;;;11.50;5.40;;;10.70;99.90;;;;;;5049393;28;20464;-50
2021/10/28 02:35:19;;;;;;;11.97;5.40;;;10.60;99.90;;;;;;5053798;28;20561;-50
2021/10/28 02:37:46;;;;;;;8.90;5.67;;;10.60;99.90;;;;;;5045491;28;20284;-49
2021/10/28 02:40:14;;;;;;;8.83;5.00;;;10.70;99.90;;;;;;5039919;28;20626;-50
2021/10/28 02:42:41;;;;;;;7.77;5.13;;;10.70;99.90;;;;;;5050547;28;20650;-50
2021/10/28 02:45:09;;;;;;;11.30;5.17;;;10.80;99.90;;;;;;5052227;28;20587;-50
2021/10/28 02:47:36;;;;;;;5.90;5.07;;;10.80;99.90;;;;;;5051847;28;20412;-50
2021/10/28 02:50:04;;;;;;;6.10;4.77;;;10.80;99.90;;;;;;5049281;28;20249;-50
2021/10/28 02:52:31;;;;;;;7.93;5.37;;;10.70;99.90;;;;;;5049692;28;20206;-50
2021/10/28 02:54:58;;;;;;;6.97;6.23;;;10.70;99.90;;;;;;5050991;28;20244;-50
2021/10/28 02:57:24;;;;;;;8.73;4.70;;;10.70;99.90;;;;;;5060776;28;20200;-49
2021/10/28 02:59:51;;;;;;;9.63;4.60;;;10.80;99.90;;;;;;5050225;28;20214;-50
2021/10/28 03:02:18;;;;;;;9.87;5.33;;;10.80;99.90;;;;;;5050351;28;20206;-50
2021/10/28 03:04:46;;;;;;;7.87;5.10;;;10.70;99.90;;;;;;5049312;28;20242;-50
2021/10/28 03:07:13;;;;;;;8.20;5.37;;;10.70;99.90;;;;;;5049997;28;20193;-50
2021/10/28 03:09:40;;;;;;;7.50;5.00;;;10.70;99.90;;;;;;5050002;28;20272;-50
2021/10/28 03:12:08;;;;;;;10.13;5.07;;;10.70;99.90;;;;;;5045718;28;20658;-50
2021/10/28 03:14:43;;;;;;;9.87;5.23;;;10.70;99.90;;;;;;5038073;28;20241;-50
2021/10/28 03:17:27;;;;;;;8.40;4.93;;;10.70;99.90;;;;;;5040438;28;20265;-50
2021/10/28 03:25:37;;;;;;;8.13;5.33;;;10.70;99.90;;;;;;5039143;28;20731;-51
2021/10/28 03:28:11;;;;;;;7.50;5.23;;;10.50;99.90;;;;;;5052656;28;20289;-51
2021/10/28 03:30:38;;;;;;;7.43;4.77;;;10.30;99.90;;;;;;5031524;28;20239;-51
2021/10/28 03:33:07;;;;;;;9.70;5.63;;;10.50;99.90;;;;;;5046435;28;20558;-50
2021/10/28 03:35:34;;;;;;;10.83;5.90;;;10.40;99.90;;;;;;5040064;28;20192;-50
2021/10/28 03:38:09;;;;;;;7.90;5.10;;;10.30;99.90;;;;;;5044735;28;20270;-50
2021/10/28 03:43:34;;;;;;;8.53;5.00;;;10.30;99.90;;;;;;5042636;28;20283;-51
2021/10/28 03:48:58;;;;;;;8.47;5.90;;;10.00;99.90;;;;;;5055510;28;20744;-50
2021/10/28 04:29:10;;;;;;;7.80;5.70;;;10.20;99.90;;;;;;5034814;28;20241;-50
2021/10/28 04:31:37;;;;;;;9.23;6.27;;;10.20;99.90;;;;;;5051731;28;20736;-50
2021/10/28 04:34:08;;;;;;;11.33;6.23;;;10.20;99.90;;;;;;5048819;28;20716;-51
2021/10/28 04:36:36;;;;;;;7.90;6.20;;;10.20;99.90;;;;;;5027857;28;20277;-51
2021/10/28 04:39:08;;;;;;;8.37;5.73;;;10.30;99.90;;;;;;5026830;28;20584;-51
2021/10/28 04:41:36;;;;;;;8.57;6.50;;;10.40;99.90;;;;;;5037389;28;20214;-52
2021/10/28 04:44:07;;;;;;;9.10;5.77;;;10.50;99.90;;;;;;5045265;28;20326;-51
2021/10/28 04:46:34;;;;;;;7.57;6.07;;;10.40;99.90;;;;;;5037700;28;20258;-50
2021/10/28 04:49:03;;;;;;;10.20;6.53;;;10.40;99.90;;;;;;5048306;28;20206;-50
2021/10/28 04:51:29;;;;;;;8.57;5.93;;;10.30;99.90;;;;;;5048025;28;20198;-51
2021/10/28 04:53:56;;;;;;;8.33;6.10;;;10.10;99.90;;;;;;5035507;28;20238;-50
2021/10/28 04:56:23;;;;;;;10.67;6.90;;;10.20;99.90;;;;;;5047846;28;20252;-50
2021/10/28 04:58:50;;;;;;;9.70;6.80;;;10.30;99.90;;;;;;5051317;28;20243;-50
2021/10/28 05:01:19;;;;;;;8.57;5.93;;;10.10;99.90;;;;;;5044539;28;20254;-50
2021/10/28 05:03:46;;;;;;;10.07;6.53;;;10.10;99.90;;;;;;5030918;28;20290;-50
2021/10/28 05:06:13;;;;;;;9.43;6.30;;;10.00;99.90;;;;;;5038816;28;20197;-50
2021/10/28 05:08:40;;;;;;;9.67;6.10;;;10.10;99.90;;;;;;5035313;28;20281;-50
2021/10/28 05:11:06;;;;;;;7.50;5.97;;;10.10;99.90;;;;;;5059718;28;20232;-50
2021/10/28 05:13:33;;;;;;;11.90;6.27;;;10.20;99.90;;;;;;5032337;28;20209;-50
2021/10/28 05:16:00;;;;;;;8.70;6.60;;;10.20;99.90;;;;;;5042872;28;20691;-50
2021/10/28 05:18:28;;;;;;;9.90;6.57;;;10.20;99.90;;;;;;5048499;28;20687;-50
2021/10/28 05:20:55;;;;;;;9.90;6.80;;;10.10;99.90;;;;;;5036674;28;20225;-51
2021/10/28 05:23:22;;;;;;;10.90;6.90;;;10.10;99.90;;;;;;5032795;28;20677;-51
2021/10/28 05:25:49;;;;;;;11.53;6.83;;;10.00;99.90;;;;;;5038885;28;20712;-50
2021/10/28 05:28:17;;;;;;;13.10;7.43;;;10.10;99.90;;;;;;5031355;28;20205;-51
2021/10/28 05:30:44;;;;;;;12.13;6.73;;;10.00;99.90;;;;;;5035030;28;20566;-50
2021/10/28 05:33:14;;;;;;;8.27;6.23;;;10.10;99.90;;;;;;5041927;28;20198;-50
2021/10/28 05:35:42;;;;;;;13.27;7.07;;;10.20;99.90;;;;;;5039964;28;20285;-50
2021/10/28 05:38:09;;;;;;;10.20;6.37;;;10.20;99.90;;;;;;5043847;28;20559;-50
2021/10/28 05:40:35;;;;;;;9.03;6.23;;;10.10;99.90;;;;;;5041125;28;20200;-50
2021/10/28 05:43:03;;;;;;;13.10;7.13;;;10.30;99.90;;;;;;5060439;28;20205;-50
2021/10/28 05:45:32;;;;;;;11.53;7.07;;;10.20;99.90;;;;;;5032461;28;20300;-50
2021/10/28 05:47:59;;;;;;;10.13;6.63;;;10.10;99.90;;;;;;5043731;28;20199;-50
2021/10/28 05:50:26;;;;;;;12.33;6.90;;;10.10;99.90;;;;;;5049048;28;20261;-49
2021/10/28 05:52:54;;;;;;;11.20;7.43;;;10.20;99.90;;;;;;5067219;28;20208;-49
2021/10/28 05:55:22;;;;;;;11.43;7.30;;;10.30;99.90;;;;;;5041775;28;20207;-50
2021/10/28 05:57:50;;;;;;;9.40;7.20;;;10.20;99.90;;;;;;5048573;28;20241;-50
2021/10/28 06:00:18;;;;;;;11.47;7.40;;;10.30;99.90;;;;;;5028247;28;20321;-49
2021/10/28 06:02:45;;;;;;;11.60;7.50;;;10.20;99.90;;;;;;5050440;28;20214;-49
2021/10/28 06:05:12;;;;;;;11.10;6.57;;;10.20;99.90;;;;;;5050537;28;20205;-49
2021/10/28 06:07:40;;;;;;;11.20;7.80;;;10.30;99.90;;;;;;5054938;28;20606;-49
2021/10/28 06:10:09;;;;;;;10.30;7.07;;;10.30;99.90;;;;;;5056891;28;20229;-50
2021/10/28 06:12:38;;;;;;;9.00;6.93;;;10.40;99.90;;;;;;5053970;28;20210;-49
2021/10/28 06:15:07;;;;;;;8.40;6.43;;;10.40;99.90;;;;;;5050475;28;20656;-50
2021/10/28 06:17:38;;;;;;;9.47;7.00;;;10.40;99.90;;;;;;5053428;28;20255;-51
2021/10/28 06:20:05;;;;;;;10.00;6.77;;;10.50;99.90;;;;;;5049652;28;20273;-50
2021/10/28 06:22:33;;;;;;;9.07;6.87;;;10.30;99.90;;;;;;5051057;28;20261;-51
2021/10/28 06:25:00;;;;;;;11.60;7.10;;;10.30;99.90;;;;;;5046587;28;20250;-50
2021/10/28 06:27:27;;;;;;;12.83;7.33;;;10.40;99.90;;;;;;5051926;28;20197;-50
2021/10/28 06:29:54;;;;;;;11.23;7.47;;;10.30;99.90;;;;;;5047123;28;20242;-51
2021/10/28 06:32:21;;;;;;;13.30;7.30;;;10.30;99.90;;;;;;5050850;28;20202;-50
2021/10/28 06:34:50;;;;;;;11.93;6.90;;;10.30;99.90;;;;;;5049520;28;20231;-51
2021/10/28 06:37:17;;;;;;;15.00;7.30;;;10.30;99.90;;;;;;5055154;28;20229;-51
2021/10/28 06:39:45;;;;;;;10.13;6.80;;;10.30;99.90;;;;;;5043511;28;20206;-51
2021/10/28 06:42:13;;;;;;;10.33;7.47;;;10.30;99.90;;;;;;5054680;28;20303;-48
2021/10/28 06:44:41;;;;;;;13.90;7.23;;;10.20;99.90;;;;;;5058649;28;20198;-51
2021/10/28 06:47:08;;;;;;;11.70;7.27;;;10.20;99.90;;;;;;5050364;28;20195;-51
2021/10/28 06:49:38;;;;;;;21.27;7.97;;;10.30;99.90;;;;;;5043464;28;20194;-51
2021/10/28 06:52:08;;;;;;;10.03;6.90;;;10.30;99.90;;;;;;5041013;28;20229;-50
2021/10/28 06:54:37;;;;;;;10.23;6.87;;;10.30;99.90;;;;;;5052335;28;20285;-50
2021/10/28 07:02:43;;;;;;;14.43;7.03;;;10.40;99.90;;;;;;5037492;28;20240;-51
2021/10/28 07:05:11;;;;;;;11.30;7.47;;;10.40;99.90;;;;;;5047058;28;20217;-50
2021/10/28 07:07:39;;;;;;;11.20;7.23;;;10.30;99.90;;;;;;5048910;28;20248;-51
2021/10/28 07:10:13;;;;;;;10.00;6.77;;;10.40;99.90;;;;;;5047595;28;20395;-50
2021/10/28 07:12:59;;;;;;;12.13;7.30;;;10.40;99.90;;;;;;5057438;28;20205;-51
2021/10/28 07:15:39;;;;;;;10.90;7.17;;;10.50;99.90;;;;;;5048960;28;20210;-51
2021/10/28 07:18:16;;;;;;;11.13;7.37;;;10.50;99.90;;;;;;5036262;28;20214;-50
2021/10/28 07:26:14;;;;;;;13.43;7.97;;;10.60;99.90;;;;;;5040999;28;20233;-50
2021/10/28 08:22:14;;;;;;;10.53;7.43;;;12.60;99.90;;;;;;5050933;28;20214;-50
2021/10/28 08:30:18;;;;;;;9.73;7.43;;;13.70;99.90;;;;;;5036199;28;20547;-51
2021/10/28 08:32:44;;;;;;;10.50;7.30;;;13.70;1.00;;;;;;5046909;28;20203;-51
2021/10/28 08:35:32;;;;;;;11.73;7.23;;;13.80;1.00;;;;;;5051125;28;20199;-50
2021/10/28 08:38:00;;;;;;;10.57;7.80;;;14.20;99.90;;;;;;5044652;28;20271;-51
2021/10/28 08:40:27;;;;;;;12.07;8.00;;;14.10;99.90;;;;;;5051193;28;20207;-48
2021/10/28 08:43:03;;;;;;;8.33;6.33;;;14.30;99.90;;;;;;5059265;28;20211;-50
2021/10/28 08:45:35;;;;;;;10.17;6.57;;;14.30;1.00;;;;;;5048203;28;20203;-51
2021/10/28 08:48:05;;;;;;;10.10;7.27;;;14.60;1.00;;;;;;5043750;28;20250;-55
2021/10/28 08:50:38;;;;;;;8.77;6.53;;;15.00;1.00;;;;;;5050234;28;20491;-51
2021/10/28 08:55:49;;;;;;;9.37;6.57;;;15.20;42.60;;;;;;5050373;28;20280;-48
2021/10/28 08:58:36;;;;;;;10.27;6.57;;;15.60;1.00;;;;;;5058967;28;20524;-52
2021/10/28 09:26:27;;;;;;;10.43;6.80;;;15.90;99.90;;;;;;5052382;28;20201;-51
2021/10/28 09:29:14;;;;;;;9.30;6.07;;;15.90;99.90;;;;;;5048273;28;20202;-50
2021/10/28 09:31:52;;;;;;;8.23;6.13;;;16.00;1.00;;;;;;5050293;28;20659;-51
2021/10/28 09:51:12;;;;;;;11.17;6.60;;;16.70;1.00;;;;;;5044668;28;20226;-51
2021/10/28 09:59:33;;;;;;;9.63;7.23;;;17.00;1.00;;;;;;5031382;28;20671;-49
2021/10/28 10:02:12;;;;;;;12.90;7.47;;;16.50;99.90;;;;;;5043517;28;20218;-49
2021/10/28 10:04:42;;;;;;;17.53;9.97;;;16.30;99.90;;;;;;5031024;28;20207;-49
2021/10/28 10:07:20;;;;;;;9.87;6.53;;;16.20;1.00;;;;;;5042954;28;20305;-52
2021/10/28 10:09:48;;;;;;;9.37;6.50;;;16.20;99.90;;;;;;5037590;28;20271;-49
2021/10/28 10:12:15;;;;;;;9.53;6.67;;;16.20;99.90;;;;;;5048614;28;20205;-49
2021/10/28 10:14:44;;;;;;;8.27;6.70;;;16.50;99.90;;;;;;5035896;28;20206;-49
2021/10/28 10:17:11;;;;;;;9.30;6.57;;;16.20;1.00;;;;;;5040875;28;20244;-49
2021/10/28 10:19:46;;;;;;;9.10;6.70;;;16.20;99.90;;;;;;5050199;28;20303;-49
2021/10/28 11:04:53;;;;;;;8.30;5.80;;;17.70;99.90;;;;;;5047096;28;20244;-51
2021/10/28 11:26:31;;;;;;;10.07;4.67;;;18.10;1.00;;;;;;5029770;28;20201;-51
2021/10/28 12:45:11;;;;;;;4.30;3.10;;;20.10;99.90;;;;;;5038230;28;20548;-50
2021/10/28 12:48:05;;;;;;;4.57;3.20;;;20.20;1.00;;;;;;5043816;28;20192;-53
2021/10/28 12:56:39;;;;;;;5.17;3.20;;;20.20;62.60;;;;;;5035310;28;20207;-51
2021/10/28 14:21:08;;;;;;;2.00;1.73;;;19.30;1.00;;;;;;5063172;28;20537;-51
2021/10/28 14:24:05;;;;;;;3.07;2.00;;;19.20;1.00;;;;;;5050298;28;20228;-51
2021/10/28 15:32:32;;;;;;;5.77;2.30;;;17.40;1.00;;;;;;5050597;28;20195;-51
2021/10/28 15:37:54;;;;;;;2.97;1.90;;;17.10;99.90;;;;;;5046606;28;20277;-50
2021/10/28 16:23:20;;;;;;;6.40;2.30;;;16.20;43.50;;;;;;5051626;28;20194;-51
2021/10/28 16:25:47;;;;;;;3.93;2.27;;;16.10;99.90;;;;;;5037358;28;20741;-51
2021/10/28 16:28:17;;;;;;;4.10;2.53;;;16.10;99.90;;;;;;5032897;28;20212;-51
2021/10/28 16:30:46;;;;;;;4.50;2.50;;;15.90;1.00;;;;;;5041671;28;20707;-52
2021/10/28 16:33:14;;;;;;;6.87;2.70;;;15.90;1.00;;;;;;5042186;28;20202;-50
2021/10/28 16:35:42;;;;;;;4.63;2.60;;;15.90;99.90;;;;;;5037596;28;20797;-50
2021/10/28 16:38:10;;;;;;;3.30;2.30;;;15.90;58.70;;;;;;5031958;28;20276;-49
2021/10/28 16:40:38;;;;;;;6.10;2.90;;;15.80;99.90;;;;;;5034674;28;20263;-50
2021/10/28 16:43:06;;;;;;;3.80;2.57;;;16.00;99.90;;;;;;5045640;28;20256;-50
2021/10/28 16:45:33;;;;;;;4.23;2.10;;;15.60;1.00;;;;;;5046509;28;20250;-50
2021/10/28 16:48:00;;;;;;;2.53;2.33;;;15.80;1.00;;;;;;5047654;28;20324;-50
2021/10/28 16:50:27;;;;;;;3.53;2.33;;;15.70;99.90;;;;;;5055523;28;20193;-50
2021/10/28 16:52:54;;;;;;;6.03;2.10;;;15.70;1.00;;;;;;5037397;28;20685;-50
2021/10/28 16:55:21;;;;;;;2.93;2.33;;;15.60;1.00;;;;;;5047901;28;20201;-50
2021/10/28 16:57:47;;;;;;;2.93;2.37;;;15.80;1.00;;;;;;5038565;28;20696;-51
2021/10/28 17:00:17;;;;;;;3.83;2.53;;;15.70;1.00;;;;;;5041785;28;20206;-49
2021/10/28 17:02:44;;;;;;;5.43;2.67;;;15.50;1.00;;;;;;5042839;28;20236;-50
2021/10/28 17:05:13;;;;;;;2.83;2.47;;;15.30;1.00;;;;;;5051536;28;20295;-50
2021/10/28 17:07:40;;;;;;;4.17;2.70;;;15.30;95.60;;;;;;5036636;28;20716;-50
2021/10/28 17:10:07;;;;;;;4.10;3.00;;;15.40;19.60;;;;;;5039582;28;20270;-50
2021/10/28 17:12:36;;;;;;;5.43;3.17;;;15.30;65.10;;;;;;5040547;28;20212;-50
2021/10/28 17:15:05;;;;;;;5.10;2.73;;;15.40;95.80;;;;;;5036341;28;20532;-50
2021/10/28 17:17:32;;;;;;;3.50;2.77;;;15.40;99.90;;;;;;5030351;28;20228;-50
2021/10/28 17:20:07;;;;;;;3.30;2.57;;;15.20;99.90;;;;;;5045478;28;20230;-50
2021/10/28 17:22:35;;;;;;;4.33;3.23;;;15.20;99.90;;;;;;5046602;28;20208;-51
2021/10/28 17:25:05;;;;;;;2.83;2.40;;;15.20;99.90;;;;;;5029861;28;20798;-52
2021/10/28 17:27:33;;;;;;;3.57;2.60;;;15.00;1.00;;;;;;5034630;28;20199;-50
2021/10/28 17:30:03;;;;;;;5.70;2.83;;;15.10;1.00;;;;;;5047446;28;20712;-52
2021/10/28 17:32:30;;;;;;;5.37;2.63;;;15.10;1.00;;;;;;5046294;28;20646;-52
2021/10/28 17:34:57;;;;;;;4.03;2.57;;;15.00;1.00;;;;;;5046452;28;20236;-51
2021/10/28 17:37:24;;;;;;;5.00;3.10;;;15.10;1.00;;;;;;5032521;28;20279;-52
2021/10/28 17:39:51;;;;;;;4.57;2.50;;;14.90;1.00;;;;;;5028188;28;20237;-51
2021/10/28 17:42:19;;;;;;;3.77;2.43;;;14.90;1.00;;;;;;5034739;28;20221;-49
2021/10/28 17:44:53;;;;;;;3.83;2.27;;;14.90;1.00;;;;;;5040092;28;20216;-52
2021/10/28 17:47:21;;;;;;;2.57;2.23;;;14.90;1.00;;;;;;5038253;28;20203;-49
2021/10/28 17:49:49;;;;;;;3.60;2.20;;;14.90;1.00;;;;;;5041209;28;20286;-50
2021/10/28 17:52:35;;;;;;;4.87;2.43;;;14.90;1.00;;;;;;5038708;28;20264;-50
2021/10/28 17:55:03;;;;;;;3.50;2.50;;;14.80;1.00;;;;;;5039537;28;20289;-52
2021/10/28 17:57:30;;;;;;;4.93;2.70;;;14.80;1.00;;;;;;5045616;28;20201;-52
2021/10/28 17:59:57;;;;;;;2.43;2.23;;;14.70;1.00;;;;;;5050962;28;20652;-52
2021/10/28 18:02:24;;;;;;;3.83;2.80;;;14.60;1.00;;;;;;5051142;28;20270;-51
2021/10/28 18:04:51;;;;;;;4.33;2.90;;;14.70;1.00;;;;;;5051894;28;20256;-51
2021/10/28 18:07:19;;;;;;;5.00;3.00;;;14.60;1.00;;;;;;5045706;28;20200;-51
2021/10/28 18:09:46;;;;;;;3.97;2.10;;;14.70;1.00;;;;;;5056914;28;20197;-51
2021/10/28 18:12:14;;;;;;;3.50;2.77;;;14.60;1.00;;;;;;5040049;28;20234;-51
2021/10/28 18:14:43;;;;;;;6.63;2.80;;;14.70;1.00;;;;;;5042457;28;20206;-51
2021/10/28 18:17:11;;;;;;;5.37;2.47;;;14.70;1.00;;;;;;5031653;28;20687;-50
2021/10/28 18:19:39;;;;;;;2.90;2.60;;;14.60;1.00;;;;;;5031610;28;20210;-50
2021/10/28 18:22:06;;;;;;;2.50;2.30;;;14.70;1.00;;;;;;5052704;28;20204;-51
2021/10/28 18:24:32;;;;;;;5.70;3.00;;;14.70;1.00;;;;;;5049290;28;20211;-49
2021/10/28 18:26:59;;;;;;;4.03;3.00;;;14.60;1.00;;;;;;5037517;28;20281;-51
2021/10/28 18:29:26;;;;;;;3.33;2.73;;;14.60;8.50;;;;;;5043035;28;20232;-51
2021/10/28 18:31:53;;;;;;;5.77;2.70;;;14.50;19.00;;;;;;5051351;28;20200;-51
2021/10/28 18:34:21;;;;;;;4.23;3.13;;;14.50;1.00;;;;;;5051335;28;20576;-49
2021/10/28 18:36:49;;;;;;;3.90;2.83;;;14.40;99.90;;;;;;5052133;28;20227;-52
2021/10/28 18:39:17;;;;;;;5.00;2.70;;;14.40;99.90;;;;;;5058314;28;20885;-52
2021/10/28 18:41:46;;;;;;;5.50;3.17;;;14.40;99.90;;;;;;5040866;28;20325;-52
2021/10/28 18:44:15;;;;;;;3.10;2.40;;;14.30;99.90;;;;;;5033454;28;20219;-49
2021/10/28 18:46:42;;;;;;;4.33;2.33;;;14.30;99.90;;;;;;5050591;28;20536;-51
2021/10/28 18:49:09;;;;;;;4.13;2.90;;;14.40;88.20;;;;;;5046614;28;20241;-49
2021/10/28 18:51:38;;;;;;;5.37;2.77;;;14.30;99.90;;;;;;5040190;28;20282;-49
2021/10/28 18:54:06;;;;;;;8.47;4.83;;;14.30;99.90;;;;;;5035138;28;20617;-49
2021/10/28 18:56:33;;;;;;;6.80;3.13;;;14.30;99.90;;;;;;5037500;28;20612;-52
2021/10/28 18:59:00;;;;;;;4.90;3.10;;;14.20;99.90;;;;;;5053243;28;20766;-52
2021/10/28 19:01:28;;;;;;;3.17;2.73;;;14.20;99.90;;;;;;5045254;28;20238;-49
2021/10/28 19:03:55;;;;;;;5.13;2.80;;;14.20;99.90;;;;;;5031064;28;20488;-49
2021/10/28 19:06:22;;;;;;;3.73;3.03;;;14.20;99.90;;;;;;5042819;28;20567;-51
2021/10/28 19:08:50;;;;;;;3.80;3.00;;;14.30;99.90;;;;;;5058530;28;20195;-51
2021/10/28 19:11:18;;;;;;;5.67;2.87;;;14.30;99.90;;;;;;5042102;28;20225;-50
2021/10/28 19:13:46;;;;;;;5.43;3.10;;;14.10;99.90;;;;;;5036764;28;20656;-49
2021/10/28 19:16:14;;;;;;;4.07;3.50;;;14.20;99.90;;;;;;5036358;28;20204;-50
2021/10/28 19:18:43;;;;;;;5.83;3.33;;;14.10;99.90;;;;;;5049482;28;20516;-50
2021/10/28 19:21:12;;;;;;;4.20;3.13;;;14.10;1.00;;;;;;5041614;28;20634;-50
2021/10/28 19:23:39;;;;;;;4.67;3.47;;;14.00;99.90;;;;;;5030127;28;20201;-50
2021/10/28 19:26:08;;;;;;;4.47;3.27;;;13.90;1.00;;;;;;5040781;28;20206;-51
2021/10/28 19:28:35;;;;;;;4.63;3.70;;;14.10;99.90;;;;;;5035653;28;20242;-50
2021/10/28 19:31:07;;;;;;;3.97;3.33;;;14.00;1.00;;;;;;5029547;28;20209;-50
2021/10/28 19:36:08;;;;;;;5.40;3.57;;;13.90;1.00;;;;;;5046770;28;21278;-50
2021/10/28 19:46:52;;;;;;;5.17;3.80;;;13.70;1.00;;;;;;5006572;28;20285;-50
2021/10/28 19:49:20;;;;;;;4.47;3.77;;;13.80;1.00;;;;;;5006789;28;20575;-50
2021/10/28 19:51:48;;;;;;;11.00;3.93;;;13.80;1.00;;;;;;5001226;28;20783;-50
2021/10/28 19:54:15;;;;;;;5.23;4.07;;;13.90;1.00;;;;;;5006961;28;20201;-50
2021/10/28 19:56:43;;;;;;;6.83;3.97;;;13.90;99.90;;;;;;5005747;28;20801;-50
2021/10/28 19:59:14;;;;;;;8.80;4.60;;;13.80;1.00;;;;;;5006545;28;20635;-50
2021/10/28 20:01:51;;;;;;;4.77;4.23;;;13.80;1.00;;;;;;5006682;28;20799;-50
2021/10/28 20:07:07;;;;;;;4.93;4.00;;;13.70;1.00;;;;;;5004311;28;20236;-50
2021/10/28 20:20:41;;;;;;;4.63;3.77;;;13.70;1.00;;;;;;5050223;28;20278;-49
2021/10/28 20:23:08;;;;;;;7.90;4.63;;;13.70;1.00;;;;;;5037848;28;20726;-49
2021/10/28 20:25:37;;;;;;;7.33;4.37;;;13.60;1.00;;;;;;5036106;28;20824;-49
2021/10/28 20:28:06;;;;;;;7.57;3.80;;;13.50;1.00;;;;;;5047840;28;20191;-49
2021/10/28 20:30:44;;;;;;;6.67;4.63;;;13.50;1.00;;;;;;5038687;28;20291;-48
2021/10/28 20:33:10;;;;;;;7.33;4.20;;;13.50;1.00;;;;;;5039936;28;20223;-49
2021/10/28 20:37:05;;;;;;;6.63;4.67;;;13.50;1.00;;;;;;5046039;28;20288;-48
2021/10/28 20:38:27;;;;;;;5.90;4.43;;;13.30;1.00;;;;;;5033134;28;20339;-52
2021/10/28 20:40:53;;;;;;;6.70;4.73;;;13.10;1.00;;;;;;5042394;28;20256;-51
2021/10/28 20:43:21;;;;;;;6.63;4.90;;;13.10;1.00;;;;;;5048469;28;20254;-50
2021/10/28 20:45:52;;;;;;;5.50;4.47;;;13.00;1.00;;;;;;5032115;28;20696;-51
2021/10/28 20:48:19;;;;;;;9.73;5.60;;;13.00;99.90;;;;;;5040964;28;20579;-50
2021/10/28 20:50:46;;;;;;;5.60;4.67;;;12.70;99.90;;;;;;5045026;28;20612;-50
2021/10/28 20:53:14;;;;;;;6.63;4.93;;;12.80;99.90;;;;;;5027262;28;20235;-50
2021/10/28 20:55:40;;;;;;;6.43;4.83;;;12.80;99.90;;;;;;5028884;28;20618;-49
2021/10/28 20:58:07;;;;;;;6.23;5.10;;;12.80;85.70;;;;;;5046998;28;20201;-50
2021/10/28 21:00:34;;;;;;;7.80;5.30;;;12.80;99.90;;;;;;5028796;28;20497;-51
2021/10/28 21:03:02;;;;;;;9.53;6.10;;;13.00;72.10;;;;;;5042368;28;20655;-50
2021/10/28 21:05:29;;;;;;;8.60;5.30;;;12.90;45.00;;;;;;5058673;28;20230;-50
2021/10/28 21:07:57;;;;;;;8.73;5.70;;;12.90;79.30;;;;;;5048289;28;20196;-51
2021/10/28 21:10:27;;;;;;;7.83;5.97;;;13.00;28.50;;;;;;5048208;28;20287;-51
2021/10/28 21:12:55;;;;;;;7.50;5.63;;;12.90;86.70;;;;;;5043770;28;20200;-51
2021/10/28 21:15:23;;;;;;;7.20;6.07;;;12.90;78.10;;;;;;5048411;28;20274;-49
2021/10/28 21:17:51;;;;;;;8.57;5.50;;;12.80;78.50;;;;;;5036270;28;20200;-49
2021/10/28 21:20:18;;;;;;;8.23;5.97;;;12.70;98.50;;;;;;5040363;28;20284;-49
2021/10/28 21:22:45;;;;;;;9.70;5.63;;;12.70;94.50;;;;;;5039615;28;20213;-49
2021/10/28 21:25:12;;;;;;;8.23;6.03;;;12.70;99.90;;;;;;5044904;28;20315;-48
2021/10/28 21:27:41;;;;;;;8.33;6.27;;;12.70;95.90;;;;;;5030844;28;20254;-49
2021/10/28 21:30:26;;;;;;;9.10;6.70;;;12.70;93.60;;;;;;5055314;28;20203;-51
2021/10/28 21:32:55;;;;;;;8.47;6.17;;;12.50;98.40;;;;;;5061327;28;20232;-51
2021/10/28 21:35:21;;;;;;;10.80;6.20;;;12.40;99.90;;;;;;5049871;28;20294;-51
2021/10/28 21:37:48;;;;;;;8.67;6.53;;;12.20;99.90;;;;;;5059751;28;20270;-48
2021/10/28 21:40:16;;;;;;;9.07;6.40;;;12.20;99.90;;;;;;5056498;28;20270;-51
2021/10/28 21:42:44;;;;;;;9.40;6.83;;;12.10;99.90;;;;;;5050529;28;20207;-50
2021/10/28 21:45:15;;;;;;;9.40;6.73;;;12.10;99.90;;;;;;5040579;28;20230;-50
2021/10/28 21:47:47;;;;;;;7.63;6.43;;;12.20;99.90;;;;;;5047529;28;20247;-51
2021/10/28 21:50:16;;;;;;;7.77;5.97;;;12.30;99.90;;;;;;5044973;28;20230;-50
2021/10/28 21:52:55;;;;;;;9.90;7.20;;;12.10;99.90;;;;;;5045022;28;20208;-50
2021/10/28 21:55:38;;;;;;;8.57;5.67;;;12.10;99.90;;;;;;5045605;28;20310;-51
2021/10/28 22:25:04;;;;;;;11.63;8.13;;;12.10;99.90;;;;;;5040422;28;20274;-51